createdAt,value
2022-08-26T00:00:10.274Z,23.7
2022-08-26T00:01:05.907Z,23.7
2022-08-26T00:02:10.959Z,23.7
2022-08-26T00:03:05.698Z,23.7
2022-08-26T00:04:06.350Z,23.7
2022-08-26T00:05:13.146Z,23.9
2022-08-26T00:06:06.056Z,24
2022-08-26T00:07:05.746Z,24.2
2022-08-26T00:08:07.649Z,24.1
2022-08-26T00:09:07.662Z,23.6
2022-08-26T00:10:05.918Z,23.4
2022-08-26T00:11:05.969Z,23.1
2022-08-26T00:12:06.037Z,22.8
2022-08-26T00:13:06.316Z,23
2022-08-26T00:14:08.587Z,23.2
2022-08-26T00:15:06.420Z,23
2022-08-26T00:16:06.426Z,22.9
2022-08-26T00:17:06.401Z,23
2022-08-26T00:18:16.910Z,23
2022-08-26T00:19:07.319Z,23
2022-08-26T00:20:08.272Z,22.8
2022-08-26T00:21:08.146Z,22.7
2022-08-26T00:22:08.883Z,22.7
2022-08-26T00:23:07.930Z,22.9
2022-08-26T00:24:07.636Z,23
2022-08-26T00:25:08.638Z,22.9
2022-08-26T00:26:07.151Z,22.8
2022-08-26T00:27:07.178Z,22.9
2022-08-26T00:28:07.525Z,23
2022-08-26T00:29:08.295Z,23
2022-08-26T00:30:07.370Z,23
2022-08-26T00:31:07.484Z,22.9
2022-08-26T00:32:09.930Z,23
2022-08-26T00:33:09.884Z,23.1
2022-08-26T00:34:09.713Z,23.2
2022-08-26T00:35:08.506Z,23.2
2022-08-26T00:36:07.832Z,23.2
2022-08-26T00:37:10.959Z,23.1
2022-08-26T00:38:07.979Z,23
2022-08-26T00:39:08.055Z,22.9
2022-08-26T00:40:09.251Z,22.9
2022-08-26T00:41:14.904Z,23
2022-08-26T00:42:09.992Z,22.7
2022-08-26T00:43:09.376Z,22.7
2022-08-26T00:44:08.442Z,22.8
2022-08-26T00:45:14.114Z,22.8
2022-08-26T00:46:09.157Z,22.8
2022-08-26T00:47:09.329Z,22.6
2022-08-26T00:48:15.588Z,22.6
2022-08-26T00:49:12.622Z,22.6
2022-08-26T00:50:10.575Z,22.6
2022-08-26T00:51:11.386Z,22.7
2022-08-26T00:52:10.002Z,22.8
2022-08-26T00:53:15.552Z,22.7
2022-08-26T00:54:10.919Z,22.9
2022-08-26T00:55:10.472Z,22.8
2022-08-26T00:56:10.211Z,22.8
2022-08-26T00:57:15.878Z,22.9
2022-08-26T00:58:09.928Z,22.9
2022-08-26T00:59:10.068Z,22.7
2022-08-26T01:00:11.673Z,22.8
2022-08-26T01:01:11.201Z,22.7
2022-08-26T01:02:20.367Z,22.7
2022-08-26T01:03:11.597Z,22.7
2022-08-26T01:04:10.469Z,22.6
2022-08-26T01:05:10.570Z,22.3
2022-08-26T01:06:13.194Z,22.1
2022-08-26T01:07:10.616Z,22.3
2022-08-26T01:08:11.028Z,22.6
2022-08-26T01:09:11.952Z,22.8
2022-08-26T01:10:16.468Z,22.7
2022-08-26T01:11:11.027Z,22.4
2022-08-26T01:12:11.046Z,22.4
2022-08-26T01:13:10.869Z,22.3
2022-08-26T01:14:12.462Z,22.4
2022-08-26T01:15:12.090Z,22.5
2022-08-26T01:16:11.181Z,22.5
2022-08-26T01:17:11.118Z,22.3
2022-08-26T01:18:11.198Z,22.3
2022-08-26T01:19:11.562Z,22.1
2022-08-26T01:20:11.869Z,22.1
2022-08-26T01:21:12.008Z,22
2022-08-26T01:22:12.276Z,21.9
2022-08-26T01:23:11.471Z,21.9
2022-08-26T01:24:11.940Z,22.3
2022-08-26T01:25:11.658Z,22.5
2022-08-26T01:26:18.258Z,22.5
2022-08-26T01:27:13.262Z,22.5
2022-08-26T01:28:13.835Z,22.2
2022-08-26T01:29:13.911Z,22.3
2022-08-26T01:30:12.063Z,22.5
2022-08-26T01:31:12.122Z,22.3
2022-08-26T01:32:12.816Z,22.4
2022-08-26T01:33:12.276Z,22.3
2022-08-26T01:34:12.250Z,22.3
2022-08-26T01:35:12.416Z,22.3
2022-08-26T01:36:13.130Z,22.3
2022-08-26T01:37:13.726Z,22.3
2022-08-26T01:38:12.588Z,22.3
2022-08-26T01:39:12.679Z,22.2
2022-08-26T01:40:12.706Z,22.4
2022-08-26T01:41:16.427Z,22.3
2022-08-26T01:42:12.715Z,22
2022-08-26T01:43:12.829Z,22
2022-08-26T01:44:12.857Z,22.1
2022-08-26T01:45:14.677Z,22
2022-08-26T01:46:13.382Z,22
2022-08-26T01:47:12.939Z,22
2022-08-26T01:48:14.644Z,22
2022-08-26T01:49:13.375Z,22.2
2022-08-26T01:50:13.233Z,22.4
2022-08-26T01:51:13.284Z,22.2
2022-08-26T01:52:13.434Z,21.9
2022-08-26T01:53:15.917Z,21.7
2022-08-26T01:54:13.962Z,21.7
2022-08-26T01:55:14.033Z,21.7
2022-08-26T01:56:13.797Z,21.7
2022-08-26T01:57:14.050Z,21.9
2022-08-26T01:58:13.772Z,21.7
2022-08-26T01:59:13.789Z,21.8
2022-08-26T02:00:13.850Z,21.9
2022-08-26T02:01:13.957Z,21.9
2022-08-26T02:02:14.295Z,21.8
2022-08-26T02:03:14.098Z,21.8
2022-08-26T02:04:14.161Z,21.7
2022-08-26T02:05:14.232Z,21.6
2022-08-26T02:06:15.582Z,21.8
2022-08-26T02:07:15.025Z,22
2022-08-26T02:08:14.493Z,21.9
2022-08-26T02:09:15.029Z,22
2022-08-26T02:10:14.548Z,22
2022-08-26T02:11:15.232Z,21.9
2022-08-26T02:12:14.738Z,21.8
2022-08-26T02:13:14.922Z,21.7
2022-08-26T02:14:17.059Z,21.5
2022-08-26T02:15:16.286Z,21.7
2022-08-26T02:16:15.084Z,21.8
2022-08-26T02:17:16.382Z,21.8
2022-08-26T02:18:15.347Z,21.8
2022-08-26T02:19:17.471Z,21.7
2022-08-26T02:20:17.893Z,21.9
2022-08-26T02:21:15.767Z,21.8
2022-08-26T02:22:16.717Z,21.8
2022-08-26T02:23:15.534Z,21.8
2022-08-26T02:24:16.854Z,21.8
2022-08-26T02:25:17.987Z,21.6
2022-08-26T02:26:17.943Z,21.6
2022-08-26T02:27:17.280Z,21.5
2022-08-26T02:28:15.721Z,21.7
2022-08-26T02:29:18.553Z,21.7
2022-08-26T02:30:17.155Z,21.7
2022-08-26T02:31:16.048Z,21.7
2022-08-26T02:32:18.420Z,21.5
2022-08-26T02:33:16.050Z,21.4
2022-08-26T02:34:16.516Z,21.2
2022-08-26T02:35:18.264Z,21
2022-08-26T02:36:16.676Z,21.2
2022-08-26T02:37:18.127Z,21.2
2022-08-26T02:38:16.329Z,21.2
2022-08-26T02:39:19.707Z,21
2022-08-26T02:40:16.571Z,20.9
2022-08-26T02:41:16.894Z,21.1
2022-08-26T02:42:21.670Z,21.1
2022-08-26T02:43:18.524Z,21.4
2022-08-26T02:44:16.893Z,21.2
2022-08-26T02:45:22.976Z,21.2
2022-08-26T02:46:21.627Z,21.3
2022-08-26T02:47:17.521Z,21.3
2022-08-26T02:48:18.827Z,21.4
2022-08-26T02:49:17.789Z,21.2
2022-08-26T02:50:19.219Z,21.1
2022-08-26T02:51:19.577Z,21.1
2022-08-26T02:52:17.464Z,21
2022-08-26T02:53:20.040Z,21
2022-08-26T02:54:19.783Z,20.9
2022-08-26T02:55:17.752Z,21.1
2022-08-26T02:56:17.729Z,21.2
2022-08-26T02:57:18.279Z,21.1
2022-08-26T02:58:19.313Z,21
2022-08-26T02:59:19.426Z,21.2
2022-08-26T03:00:23.788Z,21.2
2022-08-26T03:01:18.194Z,21.2
2022-08-26T03:02:19.762Z,21
2022-08-26T03:03:18.555Z,20.9
2022-08-26T03:04:18.324Z,20.9
2022-08-26T03:05:19.347Z,21.1
2022-08-26T03:06:18.910Z,21.2
2022-08-26T03:07:18.723Z,21.2
2022-08-26T03:08:20.298Z,21
2022-08-26T03:09:19.906Z,21.1
2022-08-26T03:10:19.284Z,21.2
2022-08-26T03:11:20.180Z,21
2022-08-26T03:12:19.360Z,21
2022-08-26T03:13:19.031Z,21.1
2022-08-26T03:14:20.745Z,21.4
2022-08-26T03:15:20.648Z,21.3
2022-08-26T03:16:19.324Z,21.4
2022-08-26T03:17:21.388Z,21.3
2022-08-26T03:18:21.445Z,21.2
2022-08-26T03:19:19.452Z,21.3
2022-08-26T03:20:21.581Z,21.2
2022-08-26T03:21:20.398Z,21.1
2022-08-26T03:22:21.195Z,21.1
2022-08-26T03:23:19.961Z,21
2022-08-26T03:24:20.575Z,20.9
2022-08-26T03:25:20.665Z,21.1
2022-08-26T03:26:20.018Z,21.1
2022-08-26T03:27:20.365Z,21.4
2022-08-26T03:28:20.112Z,21.4
2022-08-26T03:29:20.175Z,21.3
2022-08-26T03:30:21.851Z,21.4
2022-08-26T03:31:24.592Z,21.4
2022-08-26T03:32:22.061Z,21.3
2022-08-26T03:33:23.134Z,21.3
2022-08-26T03:34:21.374Z,21.4
2022-08-26T03:35:21.896Z,21.5
2022-08-26T03:36:24.321Z,21.3
2022-08-26T03:37:22.326Z,21.2
2022-08-26T03:38:22.570Z,21.1
2022-08-26T03:39:20.937Z,21.1
2022-08-26T03:40:22.725Z,21.2
2022-08-26T03:41:21.141Z,21.1
2022-08-26T03:42:21.416Z,21.1
2022-08-26T03:43:21.206Z,21.2
2022-08-26T03:44:21.112Z,21.4
2022-08-26T03:45:21.979Z,21.2
2022-08-26T03:46:25.464Z,21
2022-08-26T03:48:56.046Z,21
2022-08-26T03:49:17.024Z,21
2022-08-26T03:49:21.510Z,21.1
2022-08-26T03:50:23.132Z,21.1
2022-08-26T03:51:23.325Z,21
2022-08-26T03:52:21.709Z,20.9
2022-08-26T03:53:24.077Z,20.8
2022-08-26T03:54:25.168Z,20.9
2022-08-26T03:55:23.589Z,20.9
2022-08-26T03:56:22.098Z,20.7
2022-08-26T03:57:22.155Z,20.8
2022-08-26T03:58:23.445Z,21
2022-08-26T03:59:22.284Z,21
2022-08-26T04:00:27.397Z,21
2022-08-26T04:01:25.131Z,20.9
2022-08-26T04:02:23.770Z,21
2022-08-26T04:03:28.985Z,21
2022-08-26T04:04:24.993Z,21.3
2022-08-26T04:05:24.675Z,21.2
2022-08-26T04:06:26.847Z,21.2
2022-08-26T04:07:24.823Z,21.2
2022-08-26T04:08:28.080Z,21.1
2022-08-26T04:09:23.361Z,21.2
2022-08-26T04:10:26.390Z,21.3
2022-08-26T04:11:23.077Z,21.3
2022-08-26T04:12:25.677Z,21.3
2022-08-26T04:13:24.386Z,21.1
2022-08-26T04:14:23.350Z,21.2
2022-08-26T04:15:24.386Z,21.4
2022-08-26T04:16:24.253Z,21.4
2022-08-26T04:17:24.838Z,21.3
2022-08-26T04:18:28.497Z,21
2022-08-26T04:19:23.730Z,21
2022-08-26T04:20:25.025Z,21.1
2022-08-26T04:21:29.553Z,20.8
2022-08-26T04:22:24.122Z,20.9
2022-08-26T04:23:26.629Z,21
2022-08-26T04:24:42.959Z,20.9
2022-08-26T04:25:25.672Z,20.9
2022-08-26T04:26:26.880Z,20.9
2022-08-26T04:27:25.059Z,20.8
2022-08-26T04:28:29.227Z,20.9
2022-08-26T04:29:25.763Z,21
2022-08-26T04:32:19.649Z,21.1
2022-08-26T04:33:12.851Z,21
2022-08-26T04:33:32.364Z,20.9
2022-08-26T04:34:28.416Z,20.9
2022-08-26T04:35:35.644Z,21
2022-08-26T04:36:25.820Z,21
2022-08-26T04:37:33.901Z,20.9
2022-08-26T04:38:25.226Z,20.9
2022-08-26T04:39:27.819Z,20.9
2022-08-26T04:40:26.938Z,21
2022-08-26T04:41:38.678Z,21.2
2022-08-26T04:42:26.209Z,21.4
2022-08-26T04:43:32.718Z,21.3
2022-08-26T04:44:25.423Z,21.1
2022-08-26T04:45:26.514Z,21.2
2022-08-26T04:46:29.691Z,21.2
2022-08-26T04:47:32.180Z,21.1
2022-08-26T04:48:28.782Z,21.1
2022-08-26T04:49:39.429Z,21
2022-08-26T04:50:26.631Z,21
2022-08-26T04:51:33.421Z,21.3
2022-08-26T04:52:27.495Z,21.3
2022-08-26T04:53:26.643Z,21.2
2022-08-26T04:54:28.137Z,21.2
2022-08-26T04:56:44.714Z,21.1
2022-08-26T04:57:28.327Z,21.3
2022-08-26T04:58:31.191Z,21.3
2022-08-26T04:59:27.325Z,21.4
2022-08-26T05:00:29.720Z,21.3
2022-08-26T05:01:26.292Z,21.1
2022-08-26T05:02:28.348Z,21
2022-08-26T05:03:30.393Z,21.2
2022-08-26T05:04:26.456Z,21.3
2022-08-26T05:05:27.870Z,21.3
2022-08-26T05:06:30.365Z,21.3
2022-08-26T05:07:26.525Z,21.3
2022-08-26T05:08:27.169Z,21.1
2022-08-26T05:09:31.716Z,20.9
2022-08-26T05:10:44.923Z,21
2022-08-26T05:11:51.961Z,21
2022-08-26T05:12:36.756Z,20.9
2022-08-26T05:13:27.372Z,20.9
2022-08-26T05:14:27.875Z,20.8
2022-08-26T05:15:27.072Z,21
2022-08-26T05:16:35.906Z,21.1
2022-08-26T05:17:29.855Z,21.2
2022-08-26T05:18:29.038Z,21.1
2022-08-26T05:19:35.755Z,21.1
2022-08-26T05:20:32.810Z,21.1
2022-08-26T05:21:27.478Z,21.1
2022-08-26T05:22:30.198Z,21.1
2022-08-26T05:23:31.298Z,21.1
2022-08-26T05:24:38.517Z,21.1
2022-08-26T05:25:27.746Z,21.2
2022-08-26T05:26:32.743Z,21.3
2022-08-26T05:27:32.888Z,21.3
2022-08-26T05:28:29.862Z,21.5
2022-08-26T05:29:33.231Z,21.6
2022-08-26T05:30:29.648Z,21.5
2022-08-26T05:31:29.756Z,21.6
2022-08-26T05:32:32.855Z,21.7
2022-08-26T05:33:38.313Z,21.7
2022-08-26T05:34:30.226Z,21.7
2022-08-26T05:35:28.537Z,21.7
2022-08-26T05:36:36.935Z,21.6
2022-08-26T05:37:30.115Z,21.4
2022-08-26T05:38:30.933Z,21.4
2022-08-26T05:39:28.839Z,21.5
2022-08-26T05:40:33.594Z,21.4
2022-08-26T05:41:34.670Z,21.5
2022-08-26T05:42:30.727Z,21.5
2022-08-26T05:43:29.345Z,21.4
2022-08-26T05:44:33.251Z,21.4
2022-08-26T05:45:29.211Z,21.4
2022-08-26T05:46:41.914Z,21.4
2022-08-26T05:47:30.733Z,21.3
2022-08-26T05:48:32.409Z,21.1
2022-08-26T05:49:29.516Z,21.1
2022-08-26T05:50:30.690Z,21.3
2022-08-26T05:51:30.551Z,21.4
2022-08-26T05:52:30.469Z,21.6
2022-08-26T05:53:30.094Z,21.7
2022-08-26T05:54:31.502Z,21.8
2022-08-26T05:55:29.857Z,21.7
2022-08-26T05:56:39.796Z,21.6
2022-08-26T05:57:30.057Z,21.5
2022-08-26T05:58:32.417Z,21.4
2022-08-26T05:59:31.169Z,21.4
2022-08-26T06:00:35.200Z,21.4
2022-08-26T06:01:30.191Z,21.3
2022-08-26T06:02:34.181Z,21.4
2022-08-26T06:03:30.410Z,21.6
2022-08-26T06:04:33.123Z,21.6
2022-08-26T06:05:32.480Z,21.5
2022-08-26T06:06:32.986Z,21.4
2022-08-26T06:07:31.013Z,21.4
2022-08-26T06:08:33.280Z,21.3
2022-08-26T06:09:31.178Z,21.2
2022-08-26T06:10:32.722Z,21.1
2022-08-26T06:11:32.876Z,21.3
2022-08-26T06:12:32.099Z,21.2
2022-08-26T06:13:32.001Z,21.2
2022-08-26T06:14:33.524Z,21.1
2022-08-26T06:15:33.725Z,21.3
2022-08-26T06:16:35.243Z,21.5
2022-08-26T06:17:33.723Z,21.5
2022-08-26T06:18:33.457Z,21.2
2022-08-26T06:19:32.849Z,21.2
2022-08-26T06:20:32.943Z,21.3
2022-08-26T06:21:31.389Z,21.3
2022-08-26T06:22:33.840Z,21.4
2022-08-26T06:23:36.513Z,21.4
2022-08-26T06:24:34.169Z,21.3
2022-08-26T06:25:31.649Z,21.3
2022-08-26T06:26:35.977Z,21.2
2022-08-26T06:27:32.666Z,21.1
2022-08-26T06:28:36.006Z,21.2
2022-08-26T06:29:36.263Z,21.2
2022-08-26T06:30:32.899Z,21.2
2022-08-26T06:31:32.104Z,21.3
2022-08-26T06:32:34.564Z,21.3
2022-08-26T06:33:32.281Z,21.4
2022-08-26T06:34:32.814Z,21.3
2022-08-26T06:35:37.229Z,21.3
2022-08-26T06:36:35.596Z,21.3
2022-08-26T06:37:32.480Z,21.4
2022-08-26T06:38:44.999Z,21.4
2022-08-26T06:39:32.703Z,21.3
2022-08-26T06:40:35.871Z,21.4
2022-08-26T06:41:41.385Z,21.4
2022-08-26T06:42:35.312Z,21.3
2022-08-26T06:43:33.392Z,21.3
2022-08-26T06:44:37.059Z,21.4
2022-08-26T06:45:35.082Z,21.3
2022-08-26T06:46:37.357Z,21.4
2022-08-26T06:47:37.611Z,21.5
2022-08-26T06:48:35.024Z,21.7
2022-08-26T06:49:34.338Z,21.6
2022-08-26T06:50:38.155Z,21.5
2022-08-26T06:51:38.548Z,21.4
2022-08-26T06:52:36.403Z,21.4
2022-08-26T06:53:37.345Z,21.3
2022-08-26T06:54:39.493Z,21.3
2022-08-26T06:55:33.867Z,21.5
2022-08-26T06:56:44.783Z,21.5
2022-08-26T06:57:34.858Z,21.5
2022-08-26T06:58:35.158Z,21.4
2022-08-26T06:59:36.166Z,21.4
2022-08-26T07:00:39.002Z,21.4
2022-08-26T07:01:34.600Z,21.4
2022-08-26T07:02:38.888Z,21.4
2022-08-26T07:03:35.017Z,21.4
2022-08-26T07:04:35.192Z,21.4
2022-08-26T07:05:39.912Z,21.5
2022-08-26T07:06:36.540Z,21.5
2022-08-26T07:07:36.543Z,21.6
2022-08-26T07:08:46.371Z,21.5
2022-08-26T07:09:34.700Z,21.6
2022-08-26T07:10:35.428Z,21.4
2022-08-26T07:11:36.818Z,21.4
2022-08-26T07:12:34.936Z,21.5
2022-08-26T07:13:35.245Z,21.4
2022-08-26T07:14:36.095Z,21.4
2022-08-26T07:15:35.214Z,21.4
2022-08-26T07:17:20.431Z,21.4
2022-08-26T07:19:10.671Z,21.4
2022-08-26T07:20:09.822Z,21.6
2022-08-26T07:21:11.835Z,21.7
2022-08-26T07:22:11.007Z,21.7
2022-08-26T07:23:12.090Z,21.5
2022-08-26T07:24:11.114Z,21.5
2022-08-26T07:25:10.433Z,21.5
2022-08-26T07:26:10.176Z,21.6
2022-08-26T07:27:15.268Z,21.6
2022-08-26T07:28:10.413Z,21.7
2022-08-26T07:29:10.161Z,21.9
2022-08-26T07:30:10.206Z,21.7
2022-08-26T07:31:10.278Z,21.6
2022-08-26T07:32:10.361Z,21.8
2022-08-26T07:33:10.922Z,21.6
2022-08-26T07:34:10.562Z,21.5
2022-08-26T07:35:10.541Z,21.5
2022-08-26T07:36:13.026Z,21.5
2022-08-26T07:37:10.726Z,21.5
2022-08-26T07:38:12.457Z,21.5
2022-08-26T07:39:11.997Z,21.5
2022-08-26T07:40:10.891Z,21.5
2022-08-26T07:41:10.936Z,21.6
2022-08-26T07:42:14.502Z,21.5
2022-08-26T07:43:12.940Z,21.5
2022-08-26T07:44:15.201Z,21.5
2022-08-26T07:45:11.233Z,21.4
2022-08-26T07:46:16.423Z,21.5
2022-08-26T07:47:24.532Z,21.5
2022-08-26T07:48:11.468Z,21.5
2022-08-26T07:49:20.197Z,21.5
2022-08-26T07:50:49.056Z,21.5
2022-08-26T07:51:42.492Z,21.7
2022-08-26T07:52:42.558Z,21.8
2022-08-26T07:53:44.681Z,21.7
2022-08-26T07:54:43.526Z,21.7
2022-08-26T07:55:42.779Z,21.9
2022-08-26T07:56:44.177Z,21.9
2022-08-26T07:57:42.940Z,21.9
2022-08-26T07:58:44.949Z,21.8
2022-08-26T07:59:43.148Z,21.7
2022-08-26T08:00:43.256Z,21.8
2022-08-26T08:01:44.628Z,21.7
2022-08-26T08:02:43.599Z,21.7
2022-08-26T08:03:43.391Z,21.7
2022-08-26T08:04:43.550Z,21.7
2022-08-26T08:05:46.335Z,21.5
2022-08-26T08:06:44.183Z,21.5
2022-08-26T08:07:45.644Z,21.6
2022-08-26T08:08:43.856Z,21.7
2022-08-26T08:09:44.569Z,21.7
2022-08-26T08:10:44.271Z,21.6
2022-08-26T08:11:44.123Z,21.7
2022-08-26T08:12:45.639Z,21.6
2022-08-26T08:13:44.230Z,21.5
2022-08-26T08:14:44.259Z,21.5
2022-08-26T08:15:46.025Z,21.6
2022-08-26T08:16:46.167Z,21.6
2022-08-26T08:17:44.442Z,21.7
2022-08-26T08:18:44.563Z,21.6
2022-08-26T08:19:44.585Z,21.7
2022-08-26T08:20:59.343Z,21.8
2022-08-26T08:21:44.664Z,21.8
2022-08-26T08:22:46.417Z,21.8
2022-08-26T08:23:46.132Z,21.9
2022-08-26T08:24:44.823Z,21.9
2022-08-26T08:25:44.884Z,21.9
2022-08-26T08:26:50.607Z,21.8
2022-08-26T08:27:45.051Z,21.8
2022-08-26T08:28:48.917Z,21.7
2022-08-26T08:29:45.150Z,21.7
2022-08-26T08:30:45.288Z,21.6
2022-08-26T08:31:56.354Z,21.8
2022-08-26T08:32:45.314Z,21.8
2022-08-26T08:33:45.357Z,22
2022-08-26T08:34:57.927Z,21.9
2022-08-26T08:35:48.038Z,21.9
2022-08-26T08:36:48.165Z,21.8
2022-08-26T08:37:46.123Z,21.8
2022-08-26T08:38:46.365Z,21.8
2022-08-26T08:39:47.099Z,21.9
2022-08-26T08:40:49.105Z,21.8
2022-08-26T08:41:47.755Z,21.8
2022-08-26T08:42:46.226Z,21.8
2022-08-26T08:43:48.543Z,21.9
2022-08-26T08:44:51.848Z,21.8
2022-08-26T08:45:47.966Z,21.7
2022-08-26T08:46:46.206Z,21.7
2022-08-26T08:47:46.422Z,21.8
2022-08-26T08:48:46.376Z,21.8
2022-08-26T08:49:46.401Z,21.8
2022-08-26T08:50:48.503Z,21.7
2022-08-26T08:51:48.052Z,21.6
2022-08-26T08:52:46.561Z,21.7
2022-08-26T08:53:47.901Z,21.9
2022-08-26T08:54:46.739Z,21.8
2022-08-26T08:55:48.308Z,21.9
2022-08-26T08:56:51.018Z,22
2022-08-26T08:57:46.959Z,22
2022-08-26T08:58:48.202Z,22
2022-08-26T08:59:47.119Z,21.9
2022-08-26T09:00:47.356Z,22
2022-08-26T09:01:47.203Z,22
2022-08-26T09:02:47.348Z,22
2022-08-26T09:03:47.523Z,21.9
2022-08-26T09:04:47.483Z,21.9
2022-08-26T09:05:48.923Z,21.9
2022-08-26T09:06:47.645Z,22
2022-08-26T09:07:47.978Z,22.2
2022-08-26T09:08:52.775Z,22.2
2022-08-26T09:09:48.384Z,22.2
2022-08-26T09:10:47.879Z,22.2
2022-08-26T09:13:31.681Z,22
2022-08-26T09:13:48.086Z,21.9
2022-08-26T09:14:48.202Z,22
2022-08-26T09:15:49.371Z,22.1
2022-08-26T09:16:50.094Z,22
2022-08-26T09:17:48.272Z,22
2022-08-26T09:18:49.291Z,21.9
2022-08-26T09:19:48.356Z,22
2022-08-26T09:20:48.398Z,22.1
2022-08-26T09:21:52.776Z,22.2
2022-08-26T09:22:50.662Z,22.2
2022-08-26T09:23:49.842Z,22.2
2022-08-26T09:24:49.270Z,22.1
2022-08-26T09:25:49.228Z,22
2022-08-26T09:26:49.065Z,22.1
2022-08-26T09:27:50.208Z,22.1
2022-08-26T09:28:49.141Z,22.1
2022-08-26T09:29:50.346Z,22.1
2022-08-26T09:30:49.097Z,22.1
2022-08-26T09:31:51.880Z,22.1
2022-08-26T09:32:55.707Z,22
2022-08-26T09:33:51.079Z,22.1
2022-08-26T09:34:50.997Z,22
2022-08-26T09:35:49.259Z,22
2022-08-26T09:36:49.739Z,22
2022-08-26T09:38:50.360Z,22.2
2022-08-26T09:39:50.736Z,22.4
2022-08-26T09:40:49.535Z,22.4
2022-08-26T09:41:49.736Z,22.4
2022-08-26T09:42:49.798Z,22.5
2022-08-26T09:43:50.703Z,22.3
2022-08-26T09:44:49.696Z,22.3
2022-08-26T09:45:51.629Z,22.3
2022-08-26T09:46:49.978Z,22.2
2022-08-26T09:48:00.774Z,22.2
2022-08-26T09:48:51.725Z,22.2
2022-08-26T09:49:53.835Z,22.2
2022-08-26T09:50:50.217Z,22.2
2022-08-26T09:51:50.694Z,22.1
2022-08-26T09:52:50.249Z,22.1
2022-08-26T09:53:51.482Z,22.2
2022-08-26T09:54:50.492Z,22.4
2022-08-26T09:55:51.329Z,22.4
2022-08-26T09:56:50.539Z,22.3
2022-08-26T09:57:51.038Z,22.3
2022-08-26T09:58:53.727Z,22.3
2022-08-26T09:59:53.244Z,22.3
2022-08-26T10:00:51.076Z,22.3
2022-08-26T10:01:51.255Z,22.4
2022-08-26T10:02:53.722Z,22.2
2022-08-26T10:03:52.874Z,22.2
2022-08-26T10:04:50.914Z,22.2
2022-08-26T10:05:51.233Z,22.2
2022-08-26T10:06:53.101Z,22.3
2022-08-26T10:07:51.213Z,22.4
2022-08-26T10:08:52.352Z,22.3
2022-08-26T10:09:54.212Z,22.4
2022-08-26T10:10:53.025Z,22.4
2022-08-26T10:11:52.138Z,22.3
2022-08-26T10:12:52.193Z,22.3
2022-08-26T10:13:51.647Z,22.2
2022-08-26T10:14:51.997Z,22.2
2022-08-26T10:15:51.872Z,22.1
2022-08-26T10:16:51.942Z,22.1
2022-08-26T10:17:52.004Z,22.3
2022-08-26T10:18:54.711Z,22.2
2022-08-26T10:19:57.968Z,22.2
2022-08-26T10:21:36.221Z,22.2
2022-08-26T10:22:36.321Z,22.3
2022-08-26T10:23:35.820Z,22.3
2022-08-26T10:24:36.141Z,22.3
2022-08-26T10:25:39.736Z,22.5
2022-08-26T10:26:56.607Z,22.6
2022-08-26T10:27:40.469Z,22.5
2022-08-26T10:29:07.279Z,22.5
2022-08-26T10:29:42.255Z,22.5
2022-08-26T10:31:38.396Z,22.3
2022-08-26T10:32:36.354Z,22.4
2022-08-26T10:33:36.225Z,22.4
2022-08-26T10:34:37.205Z,22.4
2022-08-26T10:35:36.385Z,22.3
2022-08-26T10:36:47.138Z,22.5
2022-08-26T10:37:36.560Z,22.5
2022-08-26T10:38:37.673Z,22.3
2022-08-26T10:39:37.219Z,22.2
2022-08-26T10:40:36.846Z,22.2
2022-08-26T10:41:38.484Z,22.3
2022-08-26T10:42:38.140Z,22.4
2022-08-26T10:43:40.982Z,22.4
2022-08-26T10:44:37.627Z,22.4
2022-08-26T10:45:37.059Z,22.2
2022-08-26T10:46:37.157Z,22.1
2022-08-26T10:47:37.505Z,22.3
2022-08-26T10:48:37.337Z,22.3
2022-08-26T10:49:39.152Z,22.1
2022-08-26T10:50:39.206Z,22.1
2022-08-26T10:51:37.413Z,22.1
2022-08-26T10:52:37.477Z,22
2022-08-26T10:53:37.560Z,21.9
2022-08-26T10:54:37.912Z,22.1
2022-08-26T10:55:37.865Z,22
2022-08-26T10:56:39.660Z,22
2022-08-26T10:57:41.091Z,22
2022-08-26T10:58:37.859Z,22.2
2022-08-26T10:59:45.302Z,22.2
2022-08-26T11:00:38.059Z,22
2022-08-26T11:01:40.613Z,22
2022-08-26T11:02:38.099Z,22
2022-08-26T11:03:38.686Z,21.8
2022-08-26T11:04:38.326Z,21.8
2022-08-26T11:05:38.581Z,21.9
2022-08-26T11:06:40.148Z,21.9
2022-08-26T11:07:38.991Z,21.9
2022-08-26T11:08:38.507Z,21.9
2022-08-26T11:09:38.654Z,22
2022-08-26T11:10:38.946Z,22.1
2022-08-26T11:11:38.691Z,22.2
2022-08-26T11:12:40.338Z,22.3
2022-08-26T11:13:41.679Z,22.3
2022-08-26T11:14:53.145Z,22.1
2022-08-26T11:15:43.216Z,22
2022-08-26T11:16:40.170Z,22.1
2022-08-26T11:17:39.218Z,22.3
2022-08-26T11:18:39.201Z,22.3
2022-08-26T11:20:00.040Z,22.3
2022-08-26T11:20:41.713Z,22.4
2022-08-26T11:21:39.477Z,22.5
2022-08-26T11:22:47.337Z,22.6
2022-08-26T11:23:43.136Z,22.4
2022-08-26T11:24:39.724Z,22.5
2022-08-26T11:25:40.300Z,22.5
2022-08-26T11:26:43.290Z,22.5
2022-08-26T11:27:40.727Z,22.4
2022-08-26T11:28:39.986Z,22.3
2022-08-26T11:29:40.093Z,22.2
2022-08-26T11:30:42.563Z,22.4
2022-08-26T11:31:40.414Z,22.4
2022-08-26T11:32:42.305Z,22.5
2022-08-26T11:33:41.294Z,22.5
2022-08-26T11:34:40.390Z,22.4
2022-08-26T11:35:40.471Z,22.5
2022-08-26T11:36:40.549Z,22.7
2022-08-26T11:37:43.106Z,22.7
2022-08-26T11:38:40.878Z,22.8
2022-08-26T11:39:44.459Z,22.9
2022-08-26T11:40:41.455Z,22.8
2022-08-26T11:41:41.302Z,22.8
2022-08-26T11:42:41.037Z,22.7
2022-08-26T11:43:44.549Z,22.7
2022-08-26T11:44:41.127Z,22.6
2022-08-26T11:45:41.335Z,22.6
2022-08-26T11:46:41.330Z,22.6
2022-08-26T11:47:42.036Z,22.6
2022-08-26T11:48:41.461Z,22.7
2022-08-26T11:49:41.898Z,22.7
2022-08-26T11:50:41.611Z,22.8
2022-08-26T11:52:29.400Z,22.8
2022-08-26T11:54:58.431Z,23
2022-08-26T11:57:30.406Z,23.2
2022-08-26T11:59:41.133Z,23.4
2022-08-26T12:00:45.640Z,23.1
2022-08-26T12:01:48.332Z,22.9
2022-08-26T12:02:40.328Z,23
2022-08-26T12:03:40.426Z,22.9
2022-08-26T12:04:40.216Z,23
2022-08-26T12:05:41.986Z,23
2022-08-26T12:06:47.256Z,23
2022-08-26T12:07:42.514Z,23
2022-08-26T12:08:40.350Z,23
2022-08-26T12:09:44.266Z,22.9
2022-08-26T12:10:40.489Z,22.9
2022-08-26T12:11:40.562Z,22.9
2022-08-26T12:12:45.631Z,22.9
2022-08-26T12:13:40.779Z,22.9
2022-08-26T12:14:43.274Z,22.7
2022-08-26T12:15:44.389Z,22.6
2022-08-26T12:16:41.559Z,22.7
2022-08-26T12:17:40.999Z,22.8
2022-08-26T12:18:42.403Z,22.8
2022-08-26T12:19:42.642Z,22.7
2022-08-26T12:20:42.307Z,22.8
2022-08-26T12:21:42.347Z,22.8
2022-08-26T12:22:41.263Z,22.9
2022-08-26T12:23:41.283Z,22.9
2022-08-26T12:24:41.562Z,22.8
2022-08-26T12:25:41.380Z,22.7
2022-08-26T12:26:41.438Z,22.5
2022-08-26T12:27:41.646Z,22.6
2022-08-26T12:28:41.587Z,22.6
2022-08-26T12:29:41.575Z,22.6
2022-08-26T12:30:42.403Z,22.6
2022-08-26T12:31:41.678Z,22.6
2022-08-26T12:32:51.151Z,22.7
2022-08-26T12:33:43.773Z,22.8
2022-08-26T12:34:43.057Z,22.7
2022-08-26T12:35:42.073Z,22.7
2022-08-26T12:36:41.930Z,22.8
2022-08-26T12:37:42.438Z,22.7
2022-08-26T12:38:42.318Z,22.7
2022-08-26T12:39:44.732Z,22.7
2022-08-26T12:40:42.371Z,22.7
2022-08-26T12:41:47.501Z,22.7
2022-08-26T12:42:53.342Z,22.8
2022-08-26T12:43:45.093Z,22.8
2022-08-26T12:44:52.965Z,22.8
2022-08-26T12:45:44.564Z,22.8
2022-08-26T12:46:45.650Z,22.9
2022-08-26T12:47:44.066Z,22.9
2022-08-26T12:48:44.143Z,22.8
2022-08-26T12:49:44.816Z,22.9
2022-08-26T12:50:44.312Z,23
2022-08-26T12:51:45.220Z,23
2022-08-26T12:52:45.094Z,23
2022-08-26T12:53:45.460Z,22.9
2022-08-26T12:54:44.535Z,23.1
2022-08-26T12:55:43.352Z,23
2022-08-26T12:56:43.440Z,22.9
2022-08-26T12:57:44.995Z,22.9
2022-08-26T12:58:43.509Z,23
2022-08-26T13:00:00.088Z,23
2022-08-26T13:02:27.936Z,23
2022-08-26T13:05:00.663Z,23.2
2022-08-26T13:07:27.798Z,23.3
2022-08-26T13:08:38.872Z,23.5
2022-08-26T13:09:36.996Z,23.6
2022-08-26T13:10:37.430Z,23.6
2022-08-26T13:11:42.435Z,23.6
2022-08-26T13:12:42.325Z,23.7
2022-08-26T13:13:38.392Z,23.7
2022-08-26T13:14:40.112Z,23.6
2022-08-26T13:15:42.860Z,23.6
2022-08-26T13:16:38.748Z,23.7
2022-08-26T13:18:07.294Z,23.7
2022-08-26T13:18:39.266Z,23.6
2022-08-26T13:19:54.625Z,23.5
2022-08-26T13:20:39.017Z,23.5
2022-08-26T13:21:43.304Z,23.5
2022-08-26T13:23:39.477Z,23.5
2022-08-26T13:24:03.201Z,23.4
2022-08-26T13:24:38.184Z,23.3
2022-08-26T13:25:45.355Z,23.3
2022-08-26T13:26:38.296Z,23.3
2022-08-26T13:27:48.888Z,23.1
2022-08-26T13:29:27.887Z,23.2
2022-08-26T13:30:16.527Z,23.3
2022-08-26T13:30:38.467Z,23.3
2022-08-26T13:33:23.726Z,23.2
2022-08-26T13:33:40.163Z,23.2
2022-08-26T13:34:38.739Z,23.2
2022-08-26T13:35:39.522Z,23.2
2022-08-26T13:36:47.727Z,23.2
2022-08-26T13:37:40.890Z,23.3
2022-08-26T13:38:40.412Z,23.4
2022-08-26T13:39:39.973Z,23.3
2022-08-26T13:40:39.619Z,23.4
2022-08-26T13:41:41.544Z,23.3
2022-08-26T13:42:43.083Z,23.5
2022-08-26T13:43:45.046Z,23.5